Cooks Corners, New York
Current Conditions -  °F | °C
As of 10:53 PM on Friday 19 Dec 2014 (Local Time) from KMSS Reporting Station
Clear Clear  
Wind Chill:   Ceiling: Unl
Heat Index: 12°   Visibility: 10mi
Dew Point:   Wind: 5mph
Humidity: 88%   Direction: 220°SW
Pressure: 30.26"   Gusts: NA
Location:  44.8293°N, 74.5271°W
Report Text: KMSS 200353Z AUTO 22004KT 10SM CLR M11/M13 A3026 RMK AO2 SLP257 T11111128
Loading
Personal Weather Stations






























Interactive Weather Map New forecast layout! Learn more

10-Day Weather Forecast

Advertisements
Track Severe Weather on mobile